sensor_id;sensor_type;location;lat;lon;timestamp;pressure;altitude;pressure_sealevel;temperature;humidity
8286;BME280;4181;43.416;24.598;2022-11-09T00:01:44;100490.06;;;12.61;100.00
8286;BME280;4181;43.416;24.598;2022-11-09T00:04:11;100484.50;;;12.56;100.00
8286;BME280;4181;43.416;24.598;2022-11-09T00:06:37;100472.94;;;12.49;100.00
8286;BME280;4181;43.416;24.598;2022-11-09T00:09:04;100461.66;;;12.46;100.00
8286;BME280;4181;43.416;24.598;2022-11-09T00:11:30;100455.56;;;12.39;100.00
8286;BME280;4181;43.416;24.598;2022-11-09T00:13:56;100464.59;;;12.39;100.00
8286;BME280;4181;43.416;24.598;2022-11-09T00:16:21;100474.38;;;12.35;100.00
8286;BME280;4181;43.416;24.598;2022-11-09T00:18:47;100503.09;;;12.33;100.00
8286;BME280;4181;43.416;24.598;2022-11-09T00:21:17;100535.22;;;12.42;100.00
8286;BME280;4181;43.416;24.598;2022-11-09T00:23:44;100525.06;;;12.38;100.00
8286;BME280;4181;43.416;24.598;2022-11-09T00:26:10;100529.94;;;12.36;100.00
8286;BME280;4181;43.416;24.598;2022-11-09T00:28:37;100514.03;;;12.33;100.00
8286;BME280;4181;43.416;24.598;2022-11-09T00:31:06;100513.56;;;12.19;100.00
8286;BME280;4181;43.416;24.598;2022-11-09T00:33:32;100502.50;;;12.09;100.00
8286;BME280;4181;43.416;24.598;2022-11-09T00:35:58;100495.75;;;12.17;100.00
8286;BME280;4181;43.416;24.598;2022-11-09T00:38:23;100495.75;;;12.17;100.00
8286;BME280;4181;43.416;24.598;2022-11-09T00:40:49;100502.06;;;12.17;100.00
8286;BME280;4181;43.416;24.598;2022-11-09T00:43:14;100520.69;;;12.20;100.00
8286;BME280;4181;43.416;24.598;2022-11-09T00:45:40;100528.50;;;12.12;100.00
8286;BME280;4181;43.416;24.598;2022-11-09T00:48:06;100527.94;;;12.10;100.00
8286;BME280;4181;43.416;24.598;2022-11-09T00:50:32;100517.44;;;11.85;100.00
8286;BME280;4181;43.416;24.598;2022-11-09T00:52:58;100524.25;;;11.83;100.00
8286;BME280;4181;43.416;24.598;2022-11-09T00:55:24;100509.75;;;11.82;100.00
8286;BME280;4181;43.416;24.598;2022-11-09T00:57:50;100500.16;;;11.80;100.00
8286;BME280;4181;43.416;24.598;2022-11-09T01:00:21;100473.88;;;11.79;100.00
8286;BME280;4181;43.416;24.598;2022-11-09T01:02:48;100467.00;;;11.76;100.00
8286;BME280;4181;43.416;24.598;2022-11-09T01:05:14;100439.69;;;11.60;100.00
8286;BME280;4181;43.416;24.598;2022-11-09T01:07:39;100417.91;;;11.65;100.00
8286;BME280;4181;43.416;24.598;2022-11-09T01:10:06;100408.00;;;11.80;100.00
8286;BME280;4181;43.416;24.598;2022-11-09T01:12:32;100393.16;;;11.93;100.00
8286;BME280;4181;43.416;24.598;2022-11-09T01:14:57;100381.78;;;12.01;100.00
8286;BME280;4181;43.416;24.598;2022-11-09T01:17:23;100379.75;;;12.13;100.00
8286;BME280;4181;43.416;24.598;2022-11-09T01:19:48;100374.84;;;12.15;100.00
8286;BME280;4181;43.416;24.598;2022-11-09T01:22:15;100388.53;;;12.15;100.00
8286;BME280;4181;43.416;24.598;2022-11-09T01:24:40;100383.06;;;12.15;100.00
8286;BME280;4181;43.416;24.598;2022-11-09T01:27:06;100396.00;;;12.24;100.00
8286;BME280;4181;43.416;24.598;2022-11-09T01:29:32;100393.78;;;12.21;100.00
8286;BME280;4181;43.416;24.598;2022-11-09T01:31:58;100385.91;;;12.25;100.00
8286;BME280;4181;43.416;24.598;2022-11-09T01:34:23;100392.81;;;12.32;100.00
8286;BME280;4181;43.416;24.598;2022-11-09T01:36:50;100400.25;;;12.37;100.00
8286;BME280;4181;43.416;24.598;2022-11-09T01:39:16;100417.44;;;12.32;100.00
8286;BME280;4181;43.416;24.598;2022-11-09T01:41:41;100423.94;;;12.26;100.00
8286;BME280;4181;43.416;24.598;2022-11-09T01:44:16;100453.28;;;12.31;100.00
8286;BME280;4181;43.416;24.598;2022-11-09T01:46:52;100446.69;;;12.32;100.00
8286;BME280;4181;43.416;24.598;2022-11-09T01:52:01;100415.03;;;12.36;100.00
8286;BME280;4181;43.416;24.598;2022-11-09T01:54:31;100420.09;;;12.49;100.00
8286;BME280;4181;43.416;24.598;2022-11-09T01:57:04;100417.41;;;12.54;100.00
8286;BME280;4181;43.416;24.598;2022-11-09T01:59:32;100418.56;;;12.58;100.00
8286;BME280;4181;43.416;24.598;2022-11-09T02:02:01;100430.03;;;12.55;100.00
8286;BME280;4181;43.416;24.598;2022-11-09T02:04:32;100448.94;;;12.56;100.00
8286;BME280;4181;43.416;24.598;2022-11-09T02:06:59;100468.34;;;12.55;100.00
8286;BME280;4181;43.416;24.598;2022-11-09T02:09:46;100483.94;;;12.54;100.00
8286;BME280;4181;43.416;24.598;2022-11-09T02:12:13;100481.91;;;12.45;100.00
8286;BME280;4181;43.416;24.598;2022-11-09T02:14:40;100452.03;;;12.43;100.00
8286;BME280;4181;43.416;24.598;2022-11-09T02:17:06;100461.22;;;12.54;100.00
8286;BME280;4181;43.416;24.598;2022-11-09T02:19:32;100449.94;;;12.50;100.00
8286;BME280;4181;43.416;24.598;2022-11-09T02:21:57;100448.81;;;12.46;100.00
8286;BME280;4181;43.416;24.598;2022-11-09T02:24:23;100449.31;;;12.43;100.00
8286;BME280;4181;43.416;24.598;2022-11-09T02:26:50;100424.50;;;12.28;100.00
8286;BME280;4181;43.416;24.598;2022-11-09T02:29:19;100428.72;;;12.36;100.00
8286;BME280;4181;43.416;24.598;2022-11-09T02:32:20;100414.19;;;12.35;100.00
8286;BME280;4181;43.416;24.598;2022-11-09T02:34:46;100388.19;;;12.33;100.00
8286;BME280;4181;43.416;24.598;2022-11-09T02:37:12;100381.66;;;12.39;100.00
8286;BME280;4181;43.416;24.598;2022-11-09T02:39:38;100379.81;;;12.44;100.00
8286;BME280;4181;43.416;24.598;2022-11-09T02:42:12;100379.34;;;12.52;100.00
8286;BME280;4181;43.416;24.598;2022-11-09T02:44:48;100378.84;;;12.55;100.00
8286;BME280;4181;43.416;24.598;2022-11-09T02:47:15;100379.19;;;12.64;100.00
8286;BME280;4181;43.416;24.598;2022-11-09T02:49:41;100403.31;;;12.67;100.00
8286;BME280;4181;43.416;24.598;2022-11-09T02:52:06;100416.69;;;12.63;100.00
8286;BME280;4181;43.416;24.598;2022-11-09T02:54:32;100435.66;;;12.70;100.00
8286;BME280;4181;43.416;24.598;2022-11-09T02:56:57;100441.19;;;12.75;100.00
8286;BME280;4181;43.416;24.598;2022-11-09T02:59:23;100447.75;;;12.74;100.00
8286;BME280;4181;43.416;24.598;2022-11-09T03:01:48;100455.97;;;12.74;100.00
8286;BME280;4181;43.416;24.598;2022-11-09T03:04:15;100457.31;;;12.71;100.00
8286;BME280;4181;43.416;24.598;2022-11-09T03:06:40;100441.25;;;12.58;100.00
8286;BME280;4181;43.416;24.598;2022-11-09T03:09:08;100428.38;;;12.54;100.00
8286;BME280;4181;43.416;24.598;2022-11-09T03:11:38;100418.78;;;12.51;100.00
8286;BME280;4181;43.416;24.598;2022-11-09T03:14:04;100408.84;;;12.45;100.00
8286;BME280;4181;43.416;24.598;2022-11-09T03:16:30;100415.47;;;12.49;100.00
8286;BME280;4181;43.416;24.598;2022-11-09T03:18:55;100409.97;;;12.49;100.00
8286;BME280;4181;43.416;24.598;2022-11-09T03:21:22;100387.78;;;12.46;100.00
8286;BME280;4181;43.416;24.598;2022-11-09T03:23:48;100397.19;;;12.55;100.00
8286;BME280;4181;43.416;24.598;2022-11-09T03:26:14;100401.78;;;12.49;100.00
8286;BME280;4181;43.416;24.598;2022-11-09T03:28:39;100409.16;;;12.27;100.00
8286;BME280;4181;43.416;24.598;2022-11-09T03:31:05;100410.06;;;12.33;100.00
8286;BME280;4181;43.416;24.598;2022-11-09T03:33:31;100404.59;;;12.33;100.00
8286;BME280;4181;43.416;24.598;2022-11-09T03:35:57;100401.03;;;12.32;100.00
8286;BME280;4181;43.416;24.598;2022-11-09T03:38:22;100400.78;;;12.34;100.00
8286;BME280;4181;43.416;24.598;2022-11-09T03:40:48;100377.19;;;12.28;100.00
8286;BME280;4181;43.416;24.598;2022-11-09T03:43:13;100356.41;;;12.32;100.00
8286;BME280;4181;43.416;24.598;2022-11-09T03:45:39;100351.16;;;12.04;100.00
8286;BME280;4181;43.416;24.598;2022-11-09T03:48:04;100346.28;;;12.06;100.00
8286;BME280;4181;43.416;24.598;2022-11-09T03:50:32;100327.25;;;12.16;100.00
8286;BME280;4181;43.416;24.598;2022-11-09T03:52:58;100316.31;;;12.16;100.00
8286;BME280;4181;43.416;24.598;2022-11-09T03:55:24;100293.00;;;12.08;100.00
8286;BME280;4181;43.416;24.598;2022-11-09T03:57:49;100298.06;;;12.21;100.00
8286;BME280;4181;43.416;24.598;2022-11-09T04:00:17;100275.34;;;12.21;100.00
8286;BME280;4181;43.416;24.598;2022-11-09T04:02:43;100274.59;;;12.30;100.00
8286;BME280;4181;43.416;24.598;2022-11-09T04:05:09;100268.41;;;12.40;100.00
8286;BME280;4181;43.416;24.598;2022-11-09T04:07:35;100287.03;;;12.43;100.00
8286;BME280;4181;43.416;24.598;2022-11-09T04:10:00;100286.31;;;12.26;100.00
8286;BME280;4181;43.416;24.598;2022-11-09T04:12:26;100300.78;;;12.21;100.00
8286;BME280;4181;43.416;24.598;2022-11-09T04:14:51;100287.00;;;12.11;100.00
8286;BME280;4181;43.416;24.598;2022-11-09T04:17:17;100262.84;;;12.03;100.00
8286;BME280;4181;43.416;24.598;2022-11-09T04:19:42;100238.47;;;12.02;100.00
8286;BME280;4181;43.416;24.598;2022-11-09T04:22:08;100240.03;;;12.19;100.00
8286;BME280;4181;43.416;24.598;2022-11-09T04:24:33;100231.88;;;12.24;100.00
8286;BME280;4181;43.416;24.598;2022-11-09T04:26:59;100227.59;;;12.38;100.00
8286;BME280;4181;43.416;24.598;2022-11-09T04:29:24;100229.34;;;12.49;100.00
8286;BME280;4181;43.416;24.598;2022-11-09T04:31:50;100229.72;;;12.58;100.00
8286;BME280;4181;43.416;24.598;2022-11-09T04:34:16;100241.75;;;12.62;100.00
8286;BME280;4181;43.416;24.598;2022-11-09T04:36:42;100251.81;;;12.51;100.00
8286;BME280;4181;43.416;24.598;2022-11-09T04:39:07;100247.41;;;12.50;100.00
8286;BME280;4181;43.416;24.598;2022-11-09T04:41:33;100265.25;;;12.53;100.00
8286;BME280;4181;43.416;24.598;2022-11-09T04:43:59;100263.03;;;12.50;100.00
8286;BME280;4181;43.416;24.598;2022-11-09T04:46:25;100263.75;;;12.40;100.00
8286;BME280;4181;43.416;24.598;2022-11-09T04:48:51;100254.69;;;12.35;100.00
8286;BME280;4181;43.416;24.598;2022-11-09T04:51:16;100265.72;;;12.45;100.00
8286;BME280;4181;43.416;24.598;2022-11-09T04:53:42;100263.53;;;12.47;100.00
8286;BME280;4181;43.416;24.598;2022-11-09T04:56:07;100266.84;;;12.49;100.00
8286;BME280;4181;43.416;24.598;2022-11-09T04:58:33;100272.66;;;12.57;100.00
8286;BME280;4181;43.416;24.598;2022-11-09T05:01:19;100287.84;;;12.70;100.00
8286;BME280;4181;43.416;24.598;2022-11-09T05:03:44;100294.88;;;12.61;100.00
8286;BME280;4181;43.416;24.598;2022-11-09T05:06:10;100298.13;;;12.58;100.00
8286;BME280;4181;43.416;24.598;2022-11-09T05:08:54;100309.88;;;12.58;100.00
8286;BME280;4181;43.416;24.598;2022-11-09T05:11:20;100302.78;;;12.57;100.00
8286;BME280;4181;43.416;24.598;2022-11-09T05:13:45;100303.50;;;12.48;100.00
8286;BME280;4181;43.416;24.598;2022-11-09T05:16:11;100296.94;;;12.49;100.00
8286;BME280;4181;43.416;24.598;2022-11-09T05:18:37;100295.31;;;12.48;100.00
8286;BME280;4181;43.416;24.598;2022-11-09T05:21:03;100290.50;;;12.60;100.00
8286;BME280;4181;43.416;24.598;2022-11-09T05:23:28;100299.72;;;12.54;100.00
8286;BME280;4181;43.416;24.598;2022-11-09T05:26:13;100294.25;;;12.54;100.00
8286;BME280;4181;43.416;24.598;2022-11-09T05:28:38;100283.09;;;12.60;100.00
8286;BME280;4181;43.416;24.598;2022-11-09T05:31:04;100294.34;;;12.64;100.00
8286;BME280;4181;43.416;24.598;2022-11-09T05:33:30;100296.50;;;12.62;100.00
8286;BME280;4181;43.416;24.598;2022-11-09T05:35:56;100296.56;;;12.67;100.00
8286;BME280;4181;43.416;24.598;2022-11-09T05:38:23;100293.28;;;12.65;100.00
8286;BME280;4181;43.416;24.598;2022-11-09T05:40:51;100290.78;;;12.63;100.00
8286;BME280;4181;43.416;24.598;2022-11-09T05:43:17;100295.97;;;12.60;100.00
8286;BME280;4181;43.416;24.598;2022-11-09T05:45:43;100268.47;;;12.45;100.00
8286;BME280;4181;43.416;24.598;2022-11-09T05:48:09;100262.78;;;12.51;100.00
8286;BME280;4181;43.416;24.598;2022-11-09T05:50:36;100257.66;;;12.60;100.00
8286;BME280;4181;43.416;24.598;2022-11-09T05:53:02;100269.78;;;12.74;100.00
8286;BME280;4181;43.416;24.598;2022-11-09T05:55:27;100254.81;;;12.82;100.00
8286;BME280;4181;43.416;24.598;2022-11-09T05:57:54;100253.44;;;12.84;100.00
8286;BME280;4181;43.416;24.598;2022-11-09T06:00:20;100252.38;;;12.90;100.00
8286;BME280;4181;43.416;24.598;2022-11-09T06:02:46;100256.78;;;12.91;100.00
8286;BME280;4181;43.416;24.598;2022-11-09T06:05:11;100236.44;;;12.82;100.00
8286;BME280;4181;43.416;24.598;2022-11-09T06:07:37;100228.81;;;12.89;100.00
8286;BME280;4181;43.416;24.598;2022-11-09T06:10:09;100222.50;;;12.89;100.00
8286;BME280;4181;43.416;24.598;2022-11-09T06:12:42;100197.53;;;12.75;100.00
8286;BME280;4181;43.416;24.598;2022-11-09T06:15:11;100195.97;;;12.89;100.00
8286;BME280;4181;43.416;24.598;2022-11-09T06:17:36;100183.94;;;12.95;100.00
8286;BME280;4181;43.416;24.598;2022-11-09T06:20:02;100171.66;;;12.98;100.00
8286;BME280;4181;43.416;24.598;2022-11-09T06:22:28;100164.00;;;13.00;100.00
8286;BME280;4181;43.416;24.598;2022-11-09T06:24:54;100156.03;;;12.98;100.00
8286;BME280;4181;43.416;24.598;2022-11-09T06:27:19;100159.38;;;13.05;100.00
8286;BME280;4181;43.416;24.598;2022-11-09T06:29:44;100147.38;;;13.11;100.00
8286;BME280;4181;43.416;24.598;2022-11-09T06:32:10;100159.97;;;13.12;100.00
8286;BME280;4181;43.416;24.598;2022-11-09T06:34:35;100153.56;;;12.97;100.00
8286;BME280;4181;43.416;24.598;2022-11-09T06:37:01;100153.66;;;13.07;100.00
8286;BME280;4181;43.416;24.598;2022-11-09T06:39:26;100155.59;;;13.11;100.00
8286;BME280;4181;43.416;24.598;2022-11-09T06:41:52;100152.88;;;13.16;100.00
8286;BME280;4181;43.416;24.598;2022-11-09T06:44:17;100162.75;;;13.22;100.00
8286;BME280;4181;43.416;24.598;2022-11-09T06:46:42;100193.41;;;13.14;100.00
8286;BME280;4181;43.416;24.598;2022-11-09T06:49:08;100217.28;;;13.29;100.00
8286;BME280;4181;43.416;24.598;2022-11-09T06:51:33;100237.34;;;13.34;100.00
8286;BME280;4181;43.416;24.598;2022-11-09T06:53:59;100253.47;;;13.31;100.00
8286;BME280;4181;43.416;24.598;2022-11-09T06:56:24;100256.78;;;13.33;100.00
8286;BME280;4181;43.416;24.598;2022-11-09T06:58:50;100239.22;;;13.29;100.00
8286;BME280;4181;43.416;24.598;2022-11-09T07:01:17;100245.56;;;13.34;100.00
8286;BME280;4181;43.416;24.598;2022-11-09T07:03:43;100237.34;;;13.34;100.00
8286;BME280;4181;43.416;24.598;2022-11-09T07:06:10;100256.59;;;13.49;100.00
8286;BME280;4181;43.416;24.598;2022-11-09T07:08:36;100259.94;;;13.61;100.00
8286;BME280;4181;43.416;24.598;2022-11-09T07:13:32;100296.69;;;13.65;100.00
8286;BME280;4181;43.416;24.598;2022-11-09T07:15:57;100304.41;;;13.68;100.00
8286;BME280;4181;43.416;24.598;2022-11-09T07:18:23;100326.41;;;13.83;100.00
8286;BME280;4181;43.416;24.598;2022-11-09T07:20:49;100346.44;;;13.94;100.00
8286;BME280;4181;43.416;24.598;2022-11-09T07:23:15;100352.25;;;14.08;100.00
8286;BME280;4181;43.416;24.598;2022-11-09T07:25:40;100358.16;;;14.31;100.00
8286;BME280;4181;43.416;24.598;2022-11-09T07:28:07;100369.44;;;14.45;100.00
8286;BME280;4181;43.416;24.598;2022-11-09T07:30:33;100398.03;;;14.64;100.00
8286;BME280;4181;43.416;24.598;2022-11-09T07:33:00;100405.22;;;14.85;100.00
8286;BME280;4181;43.416;24.598;2022-11-09T07:35:26;100429.97;;;15.10;100.00
8286;BME280;4181;43.416;24.598;2022-11-09T07:37:52;100449.50;;;15.23;100.00
8286;BME280;4181;43.416;24.598;2022-11-09T07:40:18;100465.75;;;15.40;100.00
8286;BME280;4181;43.416;24.598;2022-11-09T07:42:43;100482.78;;;15.57;100.00
8286;BME280;4181;43.416;24.598;2022-11-09T07:45:09;100498.22;;;15.63;100.00
8286;BME280;4181;43.416;24.598;2022-11-09T07:47:35;100516.91;;;15.71;100.00
8286;BME280;4181;43.416;24.598;2022-11-09T07:50:00;100516.34;;;15.84;100.00
8286;BME280;4181;43.416;24.598;2022-11-09T07:52:25;100519.34;;;16.03;100.00
8286;BME280;4181;43.416;24.598;2022-11-09T07:54:51;100511.88;;;16.23;100.00
8286;BME280;4181;43.416;24.598;2022-11-09T07:57:16;100523.88;;;16.63;100.00
8286;BME280;4181;43.416;24.598;2022-11-09T07:59:42;100515.16;;;17.04;100.00
8286;BME280;4181;43.416;24.598;2022-11-09T08:02:08;100546.63;;;17.47;100.00
8286;BME280;4181;43.416;24.598;2022-11-09T08:04:33;100562.63;;;17.84;100.00
8286;BME280;4181;43.416;24.598;2022-11-09T08:06:59;100600.25;;;18.08;100.00
8286;BME280;4181;43.416;24.598;2022-11-09T08:09:24;100604.25;;;18.26;100.00
8286;BME280;4181;43.416;24.598;2022-11-09T08:11:50;100620.56;;;18.56;100.00
8286;BME280;4181;43.416;24.598;2022-11-09T08:14:15;100631.09;;;18.77;100.00
8286;BME280;4181;43.416;24.598;2022-11-09T08:16:41;100653.56;;;18.94;100.00
8286;BME280;4181;43.416;24.598;2022-11-09T08:19:06;100675.97;;;18.93;100.00
8286;BME280;4181;43.416;24.598;2022-11-09T08:21:35;100682.69;;;18.87;100.00
8286;BME280;4181;43.416;24.598;2022-11-09T08:24:01;100678.50;;;18.89;100.00
8286;BME280;4181;43.416;24.598;2022-11-09T08:26:26;100675.41;;;19.20;100.00
8286;BME280;4181;43.416;24.598;2022-11-09T08:28:51;100690.69;;;19.41;100.00
8286;BME280;4181;43.416;24.598;2022-11-09T08:31:17;100695.91;;;19.42;100.00
8286;BME280;4181;43.416;24.598;2022-11-09T08:33:42;100692.34;;;19.60;100.00
8286;BME280;4181;43.416;24.598;2022-11-09T08:36:13;100696.47;;;19.81;100.00
8286;BME280;4181;43.416;24.598;2022-11-09T08:38:39;100705.00;;;19.85;100.00
8286;BME280;4181;43.416;24.598;2022-11-09T08:41:05;100698.72;;;19.98;100.00
8286;BME280;4181;43.416;24.598;2022-11-09T08:43:31;100704.59;;;20.15;100.00
8286;BME280;4181;43.416;24.598;2022-11-09T08:45:56;100710.41;;;20.13;100.00
8286;BME280;4181;43.416;24.598;2022-11-09T08:48:22;100726.50;;;19.93;100.00
8286;BME280;4181;43.416;24.598;2022-11-09T08:50:52;100733.69;;;19.75;100.00
8286;BME280;4181;43.416;24.598;2022-11-09T08:53:18;100752.81;;;19.25;100.00
8286;BME280;4181;43.416;24.598;2022-11-09T08:55:43;100726.06;;;19.44;100.00
8286;BME280;4181;43.416;24.598;2022-11-09T08:58:09;100728.53;;;19.45;100.00
8286;BME280;4181;43.416;24.598;2022-11-09T09:00:35;100746.09;;;19.36;100.00
8286;BME280;4181;43.416;24.598;2022-11-09T09:03:04;100751.31;;;19.09;100.00
8286;BME280;4181;43.416;24.598;2022-11-09T09:05:30;100751.38;;;19.04;100.00
8286;BME280;4181;43.416;24.598;2022-11-09T09:07:58;100749.41;;;19.09;100.00
8286;BME280;4181;43.416;24.598;2022-11-09T09:10:24;100752.13;;;18.85;100.00
8286;BME280;4181;43.416;24.598;2022-11-09T09:12:49;100735.81;;;19.13;100.00
8286;BME280;4181;43.416;24.598;2022-11-09T09:15:15;100740.50;;;19.12;100.00
8286;BME280;4181;43.416;24.598;2022-11-09T09:17:40;100741.84;;;19.15;100.00
8286;BME280;4181;43.416;24.598;2022-11-09T09:20:06;100736.75;;;19.27;100.00
8286;BME280;4181;43.416;24.598;2022-11-09T09:22:32;100731.66;;;19.39;100.00
8286;BME280;4181;43.416;24.598;2022-11-09T09:24:58;100738.28;;;19.61;100.00
8286;BME280;4181;43.416;24.598;2022-11-09T09:27:23;100725.00;;;19.40;100.00
8286;BME280;4181;43.416;24.598;2022-11-09T09:29:48;100734.44;;;19.39;100.00
8286;BME280;4181;43.416;24.598;2022-11-09T09:32:14;100731.81;;;19.24;100.00
8286;BME280;4181;43.416;24.598;2022-11-09T09:34:39;100724.75;;;19.36;100.00
8286;BME280;4181;43.416;24.598;2022-11-09T09:37:05;100725.38;;;19.28;100.00
8286;BME280;4181;43.416;24.598;2022-11-09T09:39:30;100724.94;;;19.45;100.00
8286;BME280;4181;43.416;24.598;2022-11-09T09:42:00;100709.16;;;19.45;100.00
8286;BME280;4181;43.416;24.598;2022-11-09T09:47:41;100717.91;;;19.76;100.00
8286;BME280;4181;43.416;24.598;2022-11-09T09:50:15;100717.38;;;19.74;100.00
8286;BME280;4181;43.416;24.598;2022-11-09T09:53:06;100706.72;;;19.99;100.00
8286;BME280;4181;43.416;24.598;2022-11-09T09:55:39;100709.34;;;20.09;100.00
8286;BME280;4181;43.416;24.598;2022-11-09T09:58:26;100693.47;;;20.52;100.00
8286;BME280;4181;43.416;24.598;2022-11-09T10:01:02;100703.59;;;20.43;100.00
8286;BME280;4181;43.416;24.598;2022-11-09T10:03:29;100701.03;;;20.47;100.00
8286;BME280;4181;43.416;24.598;2022-11-09T10:09:04;100696.81;;;20.17;100.00
8286;BME280;4181;43.416;24.598;2022-11-09T10:11:37;100705.88;;;20.55;100.00
8286;BME280;4181;43.416;24.598;2022-11-09T10:24:49;100687.19;;;20.28;100.00
8286;BME280;4181;43.416;24.598;2022-11-09T10:30:01;100669.72;;;20.92;100.00
8286;BME280;4181;43.416;24.598;2022-11-09T10:32:29;100667.38;;;20.99;100.00
8286;BME280;4181;43.416;24.598;2022-11-09T10:35:14;100665.44;;;21.26;100.00
8286;BME280;4181;43.416;24.598;2022-11-09T10:37:46;100658.03;;;21.35;100.00
8286;BME280;4181;43.416;24.598;2022-11-09T10:42:53;100655.38;;;21.17;100.00
8286;BME280;4181;43.416;24.598;2022-11-09T10:45:39;100653.06;;;21.60;100.00
8286;BME280;4181;43.416;24.598;2022-11-09T10:48:06;100646.88;;;21.76;100.00
8286;BME280;4181;43.416;24.598;2022-11-09T10:50:50;100649.69;;;21.49;100.00
8286;BME280;4181;43.416;24.598;2022-11-09T10:53:26;100652.19;;;21.23;100.00
8286;BME280;4181;43.416;24.598;2022-11-09T10:58:49;100638.91;;;21.07;100.00
8286;BME280;4181;43.416;24.598;2022-11-09T11:01:18;100645.16;;;20.85;100.00
8286;BME280;4181;43.416;24.598;2022-11-09T11:03:44;100655.38;;;20.71;100.00
8286;BME280;4181;43.416;24.598;2022-11-09T11:08:50;100637.59;;;21.04;100.00
8286;BME280;4181;43.416;24.598;2022-11-09T11:11:21;100620.38;;;21.43;100.00
8286;BME280;4181;43.416;24.598;2022-11-09T11:13:49;100627.47;;;21.49;100.00
8286;BME280;4181;43.416;24.598;2022-11-09T11:16:31;100632.53;;;21.33;100.00
8286;BME280;4181;43.416;24.598;2022-11-09T11:18:57;100643.00;;;20.96;100.00
8286;BME280;4181;43.416;24.598;2022-11-09T11:21:24;100646.88;;;20.81;100.00
8286;BME280;4181;43.416;24.598;2022-11-09T11:24:18;100649.00;;;20.57;100.00
8286;BME280;4181;43.416;24.598;2022-11-09T11:26:52;100644.00;;;20.59;100.00
8286;BME280;4181;43.416;24.598;2022-11-09T11:31:53;100643.03;;;20.50;100.00
8286;BME280;4181;43.416;24.598;2022-11-09T11:34:19;100625.69;;;20.58;100.00
8286;BME280;4181;43.416;24.598;2022-11-09T11:39:57;100625.53;;;20.95;100.00
8286;BME280;4181;43.416;24.598;2022-11-09T11:56:06;100615.13;;;21.42;100.00
8286;BME280;4181;43.416;24.598;2022-11-09T11:59:02;100614.25;;;21.32;100.00
8286;BME280;4181;43.416;24.598;2022-11-09T12:04:26;100627.50;;;21.08;100.00
8286;BME280;4181;43.416;24.598;2022-11-09T12:17:57;100613.59;;;20.95;100.00
8286;BME280;4181;43.416;24.598;2022-11-09T12:20:35;100602.31;;;21.18;100.00
8286;BME280;4181;43.416;24.598;2022-11-09T12:26:25;100608.50;;;21.02;100.00
8286;BME280;4181;43.416;24.598;2022-11-09T12:29:06;100617.31;;;20.77;100.00
8286;BME280;4181;43.416;24.598;2022-11-09T12:31:57;100612.25;;;20.65;100.00
8286;BME280;4181;43.416;24.598;2022-11-09T12:34:33;100622.44;;;20.56;100.00
8286;BME280;4181;43.416;24.598;2022-11-09T12:37:29;100620.22;;;20.40;100.00
8286;BME280;4181;43.416;24.598;2022-11-09T12:40:52;100618.66;;;20.34;100.00
8286;BME280;4181;43.416;24.598;2022-11-09T12:43:00;100614.84;;;20.30;100.00
8286;BME280;4181;43.416;24.598;2022-11-09T12:45:35;100617.03;;;20.14;100.00
8286;BME280;4181;43.416;24.598;2022-11-09T12:48:23;100618.00;;;20.04;100.00
8286;BME280;4181;43.416;24.598;2022-11-09T12:50:51;100602.53;;;20.03;100.00
8286;BME280;4181;43.416;24.598;2022-11-09T12:53:18;100593.78;;;20.15;100.00
8286;BME280;4181;43.416;24.598;2022-11-09T12:58:29;100597.50;;;20.24;100.00
8286;BME280;4181;43.416;24.598;2022-11-09T13:00:59;100606.25;;;20.31;100.00
8286;BME280;4181;43.416;24.598;2022-11-09T13:03:31;100592.66;;;20.16;100.00
8286;BME280;4181;43.416;24.598;2022-11-09T13:08:37;100590.72;;;20.30;100.00
8286;BME280;4181;43.416;24.598;2022-11-09T13:13:42;100602.59;;;20.17;100.00
8286;BME280;4181;43.416;24.598;2022-11-09T13:16:10;100594.28;;;20.17;100.00
8286;BME280;4181;43.416;24.598;2022-11-09T13:23:47;100587.13;;;20.30;100.00
8286;BME280;4181;43.416;24.598;2022-11-09T13:29:17;100582.78;;;20.56;100.00
8286;BME280;4181;43.416;24.598;2022-11-09T13:34:40;100593.06;;;20.23;100.00
8286;BME280;4181;43.416;24.598;2022-11-09T13:48:03;100619.91;;;19.53;100.00
8286;BME280;4181;43.416;24.598;2022-11-09T13:50:31;100616.25;;;19.58;100.00
8286;BME280;4181;43.416;24.598;2022-11-09T13:52:58;100609.00;;;19.62;100.00
8286;BME280;4181;43.416;24.598;2022-11-09T13:55:38;100618.66;;;19.46;100.00
8286;BME280;4181;43.416;24.598;2022-11-09T13:58:36;100605.47;;;19.38;100.00
8286;BME280;4181;43.416;24.598;2022-11-09T14:01:02;100600.91;;;19.47;100.00
8286;BME280;4181;43.416;24.598;2022-11-09T14:03:29;100615.34;;;19.44;100.00
8286;BME280;4181;43.416;24.598;2022-11-09T14:05:59;100617.00;;;19.45;100.00
8286;BME280;4181;43.416;24.598;2022-11-09T14:08:35;100613.91;;;19.46;100.00
8286;BME280;4181;43.416;24.598;2022-11-09T14:13:52;100611.25;;;19.18;100.00
8286;BME280;4181;43.416;24.598;2022-11-09T14:16:49;100614.75;;;19.23;100.00
8286;BME280;4181;43.416;24.598;2022-11-09T14:19:51;100620.00;;;19.25;100.00
8286;BME280;4181;43.416;24.598;2022-11-09T14:22:21;100614.13;;;19.31;100.00
8286;BME280;4181;43.416;24.598;2022-11-09T14:24:47;100612.66;;;19.39;100.00
8286;BME280;4181;43.416;24.598;2022-11-09T14:27:22;100609.28;;;19.42;100.00
8286;BME280;4181;43.416;24.598;2022-11-09T14:29:56;100612.66;;;19.39;100.00
8286;BME280;4181;43.416;24.598;2022-11-09T14:35:21;100628.09;;;18.98;100.00
8286;BME280;4181;43.416;24.598;2022-11-09T14:37:51;100632.09;;;18.86;100.00
8286;BME280;4181;43.416;24.598;2022-11-09T14:40:31;100627.63;;;18.67;100.00
8286;BME280;4181;43.416;24.598;2022-11-09T14:43:15;100616.31;;;18.63;100.00